Time;durP1;ratioP1;P1;durP2;ratioP2;P2;SDS_P1;SDS_P2;PMS_P1;PMS_P2;Temp;Humidity;BMP_temperature;BMP_pressure;BME280_temperature;BME280_humidity;BME280_pressure;Samples;Min_cycle;Max_cycle;Signal;HPM_P1;HPM_P2
2022/03/05 00:02:15;;;;;;;;;;;;;;;4.91;42.52;100902.09;4969235;28;7316;-70
2022/03/05 00:04:41;;;;;;;;;;;;;;;4.86;42.62;100899.19;4991293;28;6820;-70
2022/03/05 00:07:07;;;;;;;;;;;;;;;4.84;42.63;100897.28;4990627;28;6859;-70
2022/03/05 00:09:32;;;;;;;;;;;;;;;4.80;42.62;100888.53;4991977;28;6795;-70
2022/03/05 00:11:58;;;;;;;;;;;;;;;4.75;43.06;100897.44;4967796;28;6863;-70
2022/03/05 00:14:25;;;;;;;;;;;;;;;4.72;43.47;100894.63;4966213;28;7155;-70
2022/03/05 00:16:50;;;;;;;;;;;;;;;4.67;43.60;100898.47;4993825;28;6876;-70
2022/03/05 00:19:16;;;;;;;;;;;;;;;4.63;42.72;100899.88;4970546;28;6787;-70
2022/03/05 00:21:42;;;;;;;;;;;;;;;4.62;43.25;100902.28;4990577;28;7068;-70
2022/03/05 00:24:07;;;;;;;;;;;;;;;4.61;43.72;100895.44;4966438;28;6939;-70
2022/03/05 00:26:33;;;;;;;;;;;;;;;4.60;43.31;100897.13;4965281;28;6788;-70
2022/03/05 00:28:59;;;;;;;;;;;;;;;4.62;42.84;100892.13;4987581;28;6930;-70
2022/03/05 00:31:24;;;;;;;;;;;;;;;4.61;42.79;100888.72;4954637;28;7202;-70
2022/03/05 00:33:50;;;;;;;;;;;;;;;4.63;43.31;100893.91;4988340;28;6804;-70
2022/03/05 00:36:16;;;;;;;;;;;;;;;4.63;43.57;100899.88;4988535;28;7492;-70
2022/03/05 00:38:42;;;;;;;;;;;;;;;4.63;44.00;100889.72;4987155;28;6892;-70
2022/03/05 00:41:08;;;;;;;;;;;;;;;4.63;43.75;100887.19;4987485;28;7180;-70
2022/03/05 00:43:35;;;;;;;;;;;;;;;4.63;43.30;100882.13;4974324;28;6816;-70
2022/03/05 00:46:00;;;;;;;;;;;;;;;4.64;43.14;100885.56;4948229;28;6988;-70
2022/03/05 00:48:26;;;;;;;;;;;;;;;4.64;43.16;100885.56;4969619;28;7333;-70
2022/03/05 00:50:52;;;;;;;;;;;;;;;4.64;44.22;100891.50;4988207;28;7119;-70
2022/03/05 00:53:18;;;;;;;;;;;;;;;4.65;43.52;100888.19;4972959;28;7241;-70
2022/03/05 00:55:44;;;;;;;;;;;;;;;4.66;44.02;100900.13;4966644;28;6979;-70
2022/03/05 00:58:10;;;;;;;;;;;;;;;4.65;44.36;100907.63;4986681;28;7403;-70
2022/03/05 01:00:36;;;;;;;;;;;;;;;4.64;44.21;100909.28;4967950;28;6859;-70
2022/03/05 01:03:02;;;;;;;;;;;;;;;4.61;44.17;100906.50;4969234;28;6902;-70
2022/03/05 01:05:28;;;;;;;;;;;;;;;4.58;43.53;100904.59;4968569;28;7296;-70
2022/03/05 01:07:53;;;;;;;;;;;;;;;4.54;43.85;100905.13;4988195;28;6926;-70
2022/03/05 01:10:19;;;;;;;;;;;;;;;4.50;44.12;100907.31;4990401;28;8376;-70
2022/03/05 01:12:45;;;;;;;;;;;;;;;4.47;45.10;100905.41;4968322;28;7028;-71
2022/03/05 01:15:11;;;;;;;;;;;;;;;4.44;45.14;100900.94;4989817;28;7055;-70
2022/03/05 01:17:37;;;;;;;;;;;;;;;4.42;45.15;100905.03;4958203;28;7106;-70
2022/03/05 01:20:04;;;;;;;;;;;;;;;4.42;44.95;100906.66;4970719;28;7215;-70
2022/03/05 01:22:30;;;;;;;;;;;;;;;4.42;45.16;100899.94;4974556;28;6809;-70
2022/03/05 01:24:55;;;;;;;;;;;;;;;4.42;45.25;100904.13;4994277;28;6887;-70
2022/03/05 01:27:22;;;;;;;;;;;;;;;4.45;44.78;100901.84;4990529;28;7207;-70
2022/03/05 01:29:48;;;;;;;;;;;;;;;4.45;44.84;100895.09;4989616;28;7272;-70
2022/03/05 01:32:14;;;;;;;;;;;;;;;4.47;44.96;100900.31;4990979;28;6800;-70
2022/03/05 01:34:39;;;;;;;;;;;;;;;4.48;45.35;100889.41;4937649;28;6951;-70
2022/03/05 01:37:05;;;;;;;;;;;;;;;4.49;45.43;100890.25;4993664;28;6820;-70
2022/03/05 01:39:31;;;;;;;;;;;;;;;4.49;44.83;100882.66;4937819;28;1057088;-70
2022/03/05 01:41:57;;;;;;;;;;;;;;;4.50;44.89;100887.84;4952718;28;7006;-70
2022/03/05 01:44:23;;;;;;;;;;;;;;;4.48;45.32;100884.31;4978675;28;7213;-70
2022/03/05 01:46:50;;;;;;;;;;;;;;;4.48;45.14;100881.78;4994523;28;7205;-70
2022/03/05 01:49:16;;;;;;;;;;;;;;;4.45;45.57;100879.00;4976877;28;7067;-70
2022/03/05 01:51:43;;;;;;;;;;;;;;;4.42;45.41;100882.19;4992409;28;6815;-70
2022/03/05 01:54:10;;;;;;;;;;;;;;;4.41;44.95;100879.50;4973852;28;6842;-70
2022/03/05 01:56:38;;;;;;;;;;;;;;;4.38;46.33;100881.81;4975390;28;7037;-70
2022/03/05 01:59:05;;;;;;;;;;;;;;;4.34;46.29;100884.84;4966332;28;6876;-70
2022/03/05 02:01:31;;;;;;;;;;;;;;;4.29;45.65;100882.84;4972366;28;7785;-70
2022/03/05 02:03:57;;;;;;;;;;;;;;;4.26;46.33;100892.75;4993507;28;6848;-70
2022/03/05 02:06:24;;;;;;;;;;;;;;;4.20;46.53;100877.00;4969711;28;7491;-70
2022/03/05 02:08:50;;;;;;;;;;;;;;;4.14;46.04;100877.41;4970383;28;6883;-70
2022/03/05 02:11:16;;;;;;;;;;;;;;;4.10;45.95;100880.44;4972459;28;6918;-70
2022/03/05 02:13:42;;;;;;;;;;;;;;;4.04;45.85;100877.41;4988085;28;7240;-70
2022/03/05 02:16:09;;;;;;;;;;;;;;;3.99;46.63;100877.03;4968644;28;7016;-70
2022/03/05 02:18:35;;;;;;;;;;;;;;;3.96;46.83;100879.34;4970788;28;7112;-70
2022/03/05 02:21:01;;;;;;;;;;;;;;;3.91;47.38;100875.50;4973761;28;7085;-70
2022/03/05 02:23:27;;;;;;;;;;;;;;;3.87;46.46;100873.50;4966770;28;6854;-71
2022/03/05 02:25:54;;;;;;;;;;;;;;;3.83;46.66;100874.00;4969507;28;7261;-71
2022/03/05 02:28:21;;;;;;;;;;;;;;;3.80;47.47;100871.22;4976488;28;6784;-70
2022/03/05 02:30:47;;;;;;;;;;;;;;;3.75;46.84;100870.81;4986260;28;6849;-70
2022/03/05 02:33:13;;;;;;;;;;;;;;;3.72;47.10;100875.66;4972384;28;6856;-70
2022/03/05 02:35:39;;;;;;;;;;;;;;;3.69;47.53;100876.28;4980703;28;6804;-70
2022/03/05 02:38:07;;;;;;;;;;;;;;;3.66;47.40;100868.41;4971317;28;7162;-70
2022/03/05 02:40:34;;;;;;;;;;;;;;;3.67;47.27;100869.31;4972942;28;6819;-70
2022/03/05 02:43:00;;;;;;;;;;;;;;;3.66;48.27;100870.06;4957553;28;7193;-70
2022/03/05 02:45:26;;;;;;;;;;;;;;;3.64;47.34;100869.94;4968568;28;6784;-70
2022/03/05 02:47:51;;;;;;;;;;;;;;;3.64;47.62;100866.53;4994639;28;7201;-70
2022/03/05 02:50:17;;;;;;;;;;;;;;;3.64;47.62;100866.53;4977376;28;6772;-70
2022/03/05 02:52:43;;;;;;;;;;;;;;;3.60;48.36;100862.84;4951133;28;7104;-70
2022/03/05 02:55:08;;;;;;;;;;;;;;;3.59;47.60;100866.13;4993803;28;7989;-70
2022/03/05 02:57:34;;;;;;;;;;;;;;;3.59;47.52;100871.22;4971342;28;6867;-70
2022/03/05 03:00:00;;;;;;;;;;;;;;;3.55;47.76;100870.06;4973210;28;7172;-70
2022/03/05 03:02:26;;;;;;;;;;;;;;;3.53;47.86;100869.06;4994703;28;7148;-70
2022/03/05 03:04:52;;;;;;;;;;;;;;;3.51;48.47;100868.00;4993097;28;6827;-70
2022/03/05 03:07:18;;;;;;;;;;;;;;;3.49;47.38;100868.66;4977373;28;6784;-70
2022/03/05 03:09:43;;;;;;;;;;;;;;;3.45;48.08;100860.78;4993906;28;7673;-70
2022/03/05 03:12:09;;;;;;;;;;;;;;;3.41;48.25;100868.91;4962320;28;6857;-70
2022/03/05 03:14:35;;;;;;;;;;;;;;;3.38;47.98;100866.13;4974474;28;6903;-70
2022/03/05 03:17:01;;;;;;;;;;;;;;;3.34;48.39;100871.66;4994133;28;7061;-70
2022/03/05 03:19:26;;;;;;;;;;;;;;;3.33;48.50;100872.44;4959742;28;7434;-70
2022/03/05 03:21:52;;;;;;;;;;;;;;;3.28;48.46;100863.53;4974127;28;7225;-70
2022/03/05 03:24:18;;;;;;;;;;;;;;;3.24;48.62;100862.41;4996125;28;6819;-70
2022/03/05 03:26:45;;;;;;;;;;;;;;;3.19;48.29;100859.50;4991064;28;6890;-70
2022/03/05 03:29:12;;;;;;;;;;;;;;;3.16;48.07;100861.75;4992816;28;7164;-70
2022/03/05 03:31:38;;;;;;;;;;;;;;;3.10;48.20;100865.41;4983971;28;7746;-70
2022/03/05 03:34:04;;;;;;;;;;;;;;;3.07;48.79;100865.16;4974754;28;6883;-70
2022/03/05 03:36:30;;;;;;;;;;;;;;;3.01;48.94;100857.91;4978145;28;6810;-70
2022/03/05 03:38:56;;;;;;;;;;;;;;;2.99;48.63;100859.41;4958011;28;6808;-70
2022/03/05 03:41:21;;;;;;;;;;;;;;;2.95;49.28;100860.81;4975541;28;6796;-70
2022/03/05 03:43:47;;;;;;;;;;;;;;;2.94;49.07;100863.19;4977502;28;6815;-70
2022/03/05 03:46:13;;;;;;;;;;;;;;;2.92;48.83;100850.41;4960012;28;8516;-70
2022/03/05 03:48:42;;;;;;;;;;;;;;;2.90;49.46;100856.97;4978553;28;6934;-70
2022/03/05 03:51:07;;;;;;;;;;;;;;;2.87;49.29;100862.66;4996999;28;6932;-70
2022/03/05 03:53:33;;;;;;;;;;;;;;;2.83;49.33;100858.09;4994282;28;7417;-70
2022/03/05 03:55:59;;;;;;;;;;;;;;;2.82;49.49;100863.94;4971849;28;8786;-70
2022/03/05 03:58:24;;;;;;;;;;;;;;;2.78;49.30;100859.34;4978068;28;6794;-70
2022/03/05 04:00:50;;;;;;;;;;;;;;;2.76;49.36;100874.41;4974565;28;7285;-70
2022/03/05 04:03:16;;;;;;;;;;;;;;;2.74;49.70;100864.91;4990206;28;6891;-70
2022/03/05 04:05:41;;;;;;;;;;;;;;;2.71;49.80;100874.78;4976274;28;7873;-70
2022/03/05 04:10:51;;;;;;;;;;;;;;;2.70;50.15;100870.44;4970937;28;7003;-70
2022/03/05 04:13:17;;;;;;;;;;;;;;;2.70;50.36;100867.91;4989167;28;6966;-70
2022/03/05 04:15:44;;;;;;;;;;;;;;;2.70;49.98;100875.50;4992961;28;6831;-70
2022/03/05 04:18:09;;;;;;;;;;;;;;;2.71;49.85;100878.16;4976267;28;6816;-70
2022/03/05 04:20:35;;;;;;;;;;;;;;;2.71;50.01;100882.38;4977068;28;7271;-70
2022/03/05 04:23:01;;;;;;;;;;;;;;;2.69;49.54;100882.22;4978431;28;6812;-70
2022/03/05 04:25:27;;;;;;;;;;;;;;;2.68;50.35;100884.59;4968436;28;6772;-70
2022/03/05 04:27:52;;;;;;;;;;;;;;;2.67;49.77;100882.84;4971025;28;6954;-70
2022/03/05 04:30:18;;;;;;;;;;;;;;;2.66;50.28;100884.50;4966972;28;6800;-70
2022/03/05 04:32:44;;;;;;;;;;;;;;;2.65;49.78;100885.22;4965974;28;6788;-70
2022/03/05 04:35:10;;;;;;;;;;;;;;;2.63;50.30;100880.03;4987947;28;7193;-70
2022/03/05 04:37:35;;;;;;;;;;;;;;;2.63;49.96;100881.66;4965326;28;6852;-70
2022/03/05 04:40:03;;;;;;;;;;;;;;;2.64;50.46;100893.56;4964764;28;6792;-70
2022/03/05 04:42:28;;;;;;;;;;;;;;;2.64;50.33;100898.63;4970598;28;6796;-70
2022/03/05 04:44:54;;;;;;;;;;;;;;;2.64;50.83;100903.69;4975115;28;6788;-70
2022/03/05 04:47:20;;;;;;;;;;;;;;;2.63;50.17;100901.91;4969818;28;6949;-70
2022/03/05 04:49:46;;;;;;;;;;;;;;;2.64;50.83;100897.00;4979903;28;7889;-70
2022/03/05 04:52:11;;;;;;;;;;;;;;;2.65;50.58;100897.88;4955890;28;6812;-70
2022/03/05 04:54:37;;;;;;;;;;;;;;;2.66;50.91;100902.22;4969609;28;6883;-70
2022/03/05 04:57:03;;;;;;;;;;;;;;;2.67;50.98;100905.63;4992209;28;7193;-70
2022/03/05 04:59:29;;;;;;;;;;;;;;;2.66;50.97;100901.31;4977206;28;6793;-70
2022/03/05 05:01:58;;;;;;;;;;;;;;;2.66;51.32;100907.28;4971412;28;6931;-70
2022/03/05 05:04:25;;;;;;;;;;;;;;;2.65;51.22;100910.53;4997468;28;7368;-70
2022/03/05 05:06:50;;;;;;;;;;;;;;;2.69;50.86;100914.22;4975105;28;6808;-70
2022/03/05 05:09:16;;;;;;;;;;;;;;;2.70;51.32;100910.94;4978842;28;6807;-70
2022/03/05 05:11:42;;;;;;;;;;;;;;;2.70;51.39;100913.47;4994626;28;6840;-70
2022/03/05 05:14:08;;;;;;;;;;;;;;;2.70;50.59;100918.53;4973689;28;6811;-70
2022/03/05 05:16:34;;;;;;;;;;;;;;;2.69;50.97;100915.13;4955855;28;6823;-70
2022/03/05 05:21:43;;;;;;;;;;;;;;;2.69;51.57;100917.66;4992984;28;6812;-70
2022/03/05 05:24:09;;;;;;;;;;;;;;;2.69;50.63;100916.75;4995316;28;6851;-70
2022/03/05 05:26:35;;;;;;;;;;;;;;;2.69;51.64;100916.75;4969701;28;6772;-70
2022/03/05 05:29:00;;;;;;;;;;;;;;;2.70;50.91;100918.53;4991925;28;6874;-70
2022/03/05 05:31:26;;;;;;;;;;;;;;;2.71;50.89;100918.69;4993006;28;7199;-70
2022/03/05 05:33:52;;;;;;;;;;;;;;;2.73;51.39;100926.41;4991283;28;6780;-70
2022/03/05 05:36:19;;;;;;;;;;;;;;;2.73;51.54;100918.81;4992978;28;6800;-70
2022/03/05 05:38:44;;;;;;;;;;;;;;;2.74;51.94;100925.66;4992872;28;7073;-70
2022/03/05 05:41:12;;;;;;;;;;;;;;;2.74;51.46;100928.19;4990581;28;6823;-70
2022/03/05 05:43:38;;;;;;;;;;;;;;;2.74;51.66;100925.66;4989449;28;7880;-70
2022/03/05 05:46:04;;;;;;;;;;;;;;;2.74;51.16;100928.19;4975416;28;8471;-70
2022/03/05 05:48:30;;;;;;;;;;;;;;;2.72;51.78;100917.91;4992737;28;7963;-69
2022/03/05 05:50:55;;;;;;;;;;;;;;;2.72;51.59;100928.03;4993178;28;6787;-70
2022/03/05 05:53:22;;;;;;;;;;;;;;;2.71;51.44;100928.81;4988993;28;6922;-70
2022/03/05 05:55:47;;;;;;;;;;;;;;;2.70;51.54;100924.50;4971667;28;7214;-70
2022/03/05 05:58:13;;;;;;;;;;;;;;;2.70;51.13;100934.63;4974466;28;6784;-70
2022/03/05 06:00:39;;;;;;;;;;;;;;;2.70;51.05;100936.25;4996128;28;7300;-70
2022/03/05 06:03:05;;;;;;;;;;;;;;;2.68;51.58;100935.22;4989306;28;7937;-70
2022/03/05 06:05:31;;;;;;;;;;;;;;;2.67;51.35;100933.47;4990164;28;7202;-70
2022/03/05 06:07:57;;;;;;;;;;;;;;;2.66;51.40;100936.75;4973571;28;6788;-70
2022/03/05 06:10:22;;;;;;;;;;;;;;;2.64;51.63;100941.66;4975193;28;6931;-70
2022/03/05 06:12:49;;;;;;;;;;;;;;;2.62;51.62;100938.13;4970923;28;6946;-70
2022/03/05 06:15:16;;;;;;;;;;;;;;;2.61;51.60;100934.72;4991243;28;7876;-70
2022/03/05 06:17:43;;;;;;;;;;;;;;;2.60;51.05;100937.97;4993403;28;7140;-70
2022/03/05 06:20:10;;;;;;;;;;;;;;;2.58;51.68;100936.06;4986733;28;6816;-69
2022/03/05 06:22:36;;;;;;;;;;;;;;;2.58;51.79;100938.59;4986960;28;6820;-70
2022/03/05 06:25:03;;;;;;;;;;;;;;;2.57;51.34;100940.22;4955784;28;7395;-69
2022/03/05 06:27:29;;;;;;;;;;;;;;;2.59;51.80;100940.38;4970385;28;6833;-69
2022/03/05 06:29:55;;;;;;;;;;;;;;;2.61;51.68;100934.72;4982205;28;6940;-69
2022/03/05 06:32:20;;;;;;;;;;;;;;;2.64;51.91;100944.19;4968139;28;6785;-69
2022/03/05 06:34:46;;;;;;;;;;;;;;;2.67;52.05;100943.59;4988742;28;6843;-70
2022/03/05 06:37:12;;;;;;;;;;;;;;;2.67;51.56;100943.59;4992264;28;6876;-70
2022/03/05 06:39:38;;;;;;;;;;;;;;;2.69;51.61;100944.59;4992275;28;7228;-70
2022/03/05 06:42:04;;;;;;;;;;;;;;;2.72;52.36;100947.44;4968295;28;6943;-70
2022/03/05 06:44:31;;;;;;;;;;;;;;;2.72;51.92;100944.91;4992104;28;6849;-70
2022/03/05 06:46:58;;;;;;;;;;;;;;;2.75;51.98;100947.69;4990517;28;6992;-69
2022/03/05 06:49:24;;;;;;;;;;;;;;;2.78;52.38;100945.41;4993662;28;6935;-70
2022/03/05 06:51:49;;;;;;;;;;;;;;;2.81;51.70;100953.31;4953179;28;6946;-70
2022/03/05 06:54:15;;;;;;;;;;;;;;;2.84;51.70;100943.44;4969199;28;6924;-70
2022/03/05 06:56:41;;;;;;;;;;;;;;;2.87;51.86;100946.22;4968302;28;6930;-69
2022/03/05 06:59:07;;;;;;;;;;;;;;;2.92;51.83;100946.63;4991443;28;6783;-70
2022/03/05 07:01:32;;;;;;;;;;;;;;;2.96;52.66;100941.09;4987388;28;6855;-69
2022/03/05 07:03:58;;;;;;;;;;;;;;;3.00;52.79;100943.13;4992015;28;6930;-69
2022/03/05 07:06:24;;;;;;;;;;;;;;;3.04;52.56;100949.34;4992755;28;6795;-69
2022/03/05 07:08:49;;;;;;;;;;;;;;;3.09;52.89;100945.59;4993829;28;7573;-69
2022/03/05 07:11:15;;;;;;;;;;;;;;;3.13;52.39;100950.16;4955283;28;7024;-69
2022/03/05 07:13:41;;;;;;;;;;;;;;;3.19;52.69;100949.78;4991700;28;7256;-70
2022/03/05 07:16:06;;;;;;;;;;;;;;;3.24;52.04;100957.78;4992712;28;6995;-70
2022/03/05 07:18:32;;;;;;;;;;;;;;;3.30;52.27;100961.72;4987904;28;6922;-70
2022/03/05 07:20:58;;;;;;;;;;;;;;;3.37;52.38;100970.75;4991461;28;6783;-69
2022/03/05 07:23:25;;;;;;;;;;;;;;;3.42;52.29;100961.91;4991523;28;7379;-69
2022/03/05 07:25:50;;;;;;;;;;;;;;;3.49;52.39;100958.25;4989612;28;6833;-69
2022/03/05 07:28:16;;;;;;;;;;;;;;;3.54;52.47;100968.78;4959361;28;7225;-69
2022/03/05 07:30:42;;;;;;;;;;;;;;;3.60;52.66;100964.25;4972555;28;7043;-70
2022/03/05 07:33:09;;;;;;;;;;;;;;;3.66;51.88;100961.34;4970417;28;8111;-70
2022/03/05 07:35:34;;;;;;;;;;;;;;;3.74;51.94;100971.34;4973786;28;6800;-70
2022/03/05 07:38:00;;;;;;;;;;;;;;;3.79;52.26;100966.66;4994788;28;6824;-69
2022/03/05 07:40:26;;;;;;;;;;;;;;;3.88;52.04;100964.03;4984277;28;7026;-70
2022/03/05 07:42:53;;;;;;;;;;;;;;;3.95;52.33;100962.91;4969531;28;7886;-70
2022/03/05 07:45:19;;;;;;;;;;;;;;;4.02;52.55;100962.66;4984211;28;7073;-70
2022/03/05 07:47:45;;;;;;;;;;;;;;;4.09;52.46;100969.13;4986268;28;7366;-70
2022/03/05 07:50:11;;;;;;;;;;;;;;;4.15;51.70;100974.69;4978344;28;7392;-70
2022/03/05 07:52:36;;;;;;;;;;;;;;;4.21;51.56;100974.34;4987911;28;7088;-70
2022/03/05 07:55:03;;;;;;;;;;;;;;;4.28;51.49;100977.50;4991751;28;8083;-70
2022/03/05 07:57:31;;;;;;;;;;;;;;;4.36;52.06;100977.25;4987827;28;6824;-70
2022/03/05 07:59:57;;;;;;;;;;;;;;;4.42;51.49;100978.63;4990856;28;6832;-70
2022/03/05 08:02:22;;;;;;;;;;;;;;;4.48;51.51;100979.88;4969743;28;6788;-70
2022/03/05 08:04:49;;;;;;;;;;;;;;;4.54;51.54;100986.38;4986987;28;6815;-70
2022/03/05 08:07:16;;;;;;;;;;;;;;;4.62;51.02;100983.53;4990523;28;6824;-70
2022/03/05 08:09:43;;;;;;;;;;;;;;;4.69;51.38;100985.81;4955477;28;8291;-70
2022/03/05 08:12:10;;;;;;;;;;;;;;;4.78;51.32;100988.22;4967827;28;7048;-70
2022/03/05 08:14:39;;;;;;;;;;;;;;;4.85;50.85;100993.03;4959206;28;6820;-70
2022/03/05 08:17:05;;;;;;;;;;;;;;;4.93;51.30;100993.66;4971905;28;6800;-70
2022/03/05 08:19:31;;;;;;;;;;;;;;;5.01;51.87;100995.13;4970490;28;6995;-70
2022/03/05 08:21:56;;;;;;;;;;;;;;;5.10;50.84;100995.88;4968283;28;6942;-70
2022/03/05 08:24:22;;;;;;;;;;;;;;;5.20;51.03;101001.69;4973175;28;7351;-70
2022/03/05 08:26:48;;;;;;;;;;;;;;;5.27;50.59;100998.88;4978870;28;6945;-70
2022/03/05 08:29:14;;;;;;;;;;;;;;;5.35;50.46;100997.81;4989130;28;7089;-70
2022/03/05 08:31:39;;;;;;;;;;;;;;;5.45;50.57;100990.94;4967999;28;7188;-71
2022/03/05 08:34:05;;;;;;;;;;;;;;;5.51;50.16;100993.97;4982558;28;6955;-70
2022/03/05 08:36:32;;;;;;;;;;;;;;;5.60;50.58;100994.69;4985953;28;6795;-70
2022/03/05 08:38:59;;;;;;;;;;;;;;;5.69;49.88;101002.13;4974315;28;7046;-70
2022/03/05 08:41:26;;;;;;;;;;;;;;;5.76;50.00;100999.28;4987011;28;7060;-70
2022/03/05 08:43:52;;;;;;;;;;;;;;;5.85;49.88;101004.19;4984370;28;6807;-70
2022/03/05 08:46:19;;;;;;;;;;;;;;;5.93;50.28;100998.03;4970351;28;7098;-70
2022/03/05 08:48:45;;;;;;;;;;;;;;;6.03;50.07;100997.09;4973840;28;7196;-70
2022/03/05 08:51:10;;;;;;;;;;;;;;;6.14;50.03;100997.91;4985840;28;6845;-70
2022/03/05 08:53:36;;;;;;;;;;;;;;;6.23;49.87;100992.63;4988136;28;6804;-70
2022/03/05 08:56:02;;;;;;;;;;;;;;;6.32;49.58;100998.38;4970110;28;6791;-70
2022/03/05 08:58:28;;;;;;;;;;;;;;;6.39;48.87;100992.13;4969965;28;6922;-70
2022/03/05 09:00:54;;;;;;;;;;;;;;;6.47;49.24;101002.88;4961386;28;6874;-70
2022/03/05 09:03:19;;;;;;;;;;;;;;;6.53;48.75;101001.66;4988759;28;6800;-70
2022/03/05 09:05:46;;;;;;;;;;;;;;;6.61;49.08;100993.69;4972888;28;7182;-70
2022/03/05 09:08:14;;;;;;;;;;;;;;;6.70;49.01;100991.81;4969221;28;6866;-70
2022/03/05 09:10:39;;;;;;;;;;;;;;;6.76;48.54;100989.75;4986919;28;6903;-70
2022/03/05 09:13:05;;;;;;;;;;;;;;;6.86;48.79;100990.41;4947830;28;7166;-70
2022/03/05 09:15:31;;;;;;;;;;;;;;;6.94;48.21;100994.38;4991273;28;6800;-70
2022/03/05 09:17:57;;;;;;;;;;;;;;;7.04;48.14;100988.28;4956020;28;7266;-70
2022/03/05 09:20:23;;;;;;;;;;;;;;;7.13;47.91;100986.41;4969147;28;6803;-70
2022/03/05 09:22:48;;;;;;;;;;;;;;;7.25;48.07;100983.84;4985185;28;6955;-70
2022/03/05 09:25:14;;;;;;;;;;;;;;;7.34;47.31;100981.94;4988212;28;6808;-70
2022/03/05 09:27:41;;;;;;;;;;;;;;;7.46;47.50;100983.56;4970398;28;7320;-70
2022/03/05 09:30:08;;;;;;;;;;;;;;;7.55;47.27;100979.09;4965131;28;6978;-70
2022/03/05 09:32:34;;;;;;;;;;;;;;;7.66;46.83;100976.41;4967602;28;6795;-70
2022/03/05 09:35:00;;;;;;;;;;;;;;;7.75;47.56;100983.03;4962124;28;7100;-70
2022/03/05 09:37:28;;;;;;;;;;;;;;;7.85;46.88;100987.09;4968812;28;6887;-70
2022/03/05 09:39:54;;;;;;;;;;;;;;;7.96;46.06;100990.38;4969548;28;8238;-70
2022/03/05 09:42:20;;;;;;;;;;;;;;;8.05;47.16;100988.44;4992886;28;6803;-70
2022/03/05 09:44:46;;;;;;;;;;;;;;;8.14;46.53;100993.31;4968396;28;7265;-70
2022/03/05 09:47:12;;;;;;;;;;;;;;;8.23;45.80;100998.13;4995305;28;7193;-70
2022/03/05 09:49:38;;;;;;;;;;;;;;;8.33;47.17;100986.88;4990191;28;6992;-70
2022/03/05 09:52:06;;;;;;;;;;;;;;;8.42;47.21;100989.13;4994410;28;7412;-70
2022/03/05 09:54:33;;;;;;;;;;;;;;;8.51;46.67;100991.47;4987853;28;7347;-70
2022/03/05 09:56:59;;;;;;;;;;;;;;;8.59;46.40;100987.72;4972586;28;6815;-70
2022/03/05 09:59:25;;;;;;;;;;;;;;;8.66;46.23;100989.03;4976609;28;6920;-70
2022/03/05 10:01:52;;;;;;;;;;;;;;;8.73;46.28;100994.63;4985178;28;7361;-70
2022/03/05 10:04:21;;;;;;;;;;;;;;;8.82;46.13;100998.56;4972569;28;7433;-70
2022/03/05 10:07:13;;;;;;;;;;;;;;;8.92;46.19;101002.59;4990136;28;6815;-70
2022/03/05 10:09:42;;;;;;;;;;;;;;;9.00;45.62;100999.75;4978931;28;7250;-70
2022/03/05 10:12:43;;;;;;;;;;;;;;;9.13;45.74;101000.53;4966356;28;7268;-70
2022/03/05 10:15:17;;;;;;;;;;;;;;;9.23;45.03;101002.88;4988207;28;7925;-70
2022/03/05 10:17:59;;;;;;;;;;;;;;;9.32;45.43;100992.34;4969888;28;6808;-70
2022/03/05 10:20:32;;;;;;;;;;;;;;;9.43;45.20;100986.22;4968163;28;6951;-70
2022/03/05 10:23:07;;;;;;;;;;;;;;;9.56;44.60;100982.75;4980881;28;7357;-70
2022/03/05 10:25:54;;;;;;;;;;;;;;;9.71;44.92;100976.78;4987632;28;7353;-70
2022/03/05 10:28:27;;;;;;;;;;;;;;;10.04;45.08;100987.28;4953993;28;7500;-70
2022/03/05 10:31:11;;;;;;;;;;;;;;;11.08;45.04;100984.63;4971244;28;7333;-70
2022/03/05 10:33:47;;;;;;;;;;;;;;;12.42;43.32;100977.09;4962480;28;6861;-70
2022/03/05 10:36:19;;;;;;;;;;;;;;;13.80;41.50;100961.09;4965958;28;7031;-70
2022/03/05 10:38:51;;;;;;;;;;;;;;;15.03;40.08;100969.63;4979150;28;6816;-70
2022/03/05 10:41:21;;;;;;;;;;;;;;;16.13;38.30;100957.25;4968786;28;6827;-70
2022/03/05 10:44:17;;;;;;;;;;;;;;;17.17;37.38;100954.47;4970689;28;6855;-70
2022/03/05 10:47:03;;;;;;;;;;;;;;;17.91;36.13;100950.47;4990236;28;6827;-70
2022/03/05 10:49:38;;;;;;;;;;;;;;;18.59;34.99;100954.84;4968934;28;6895;-70
2022/03/05 10:52:05;;;;;;;;;;;;;;;19.18;34.03;100952.69;4967066;28;6816;-71
2022/03/05 10:54:39;;;;;;;;;;;;;;;19.66;33.61;100942.38;4971779;28;6800;-71
2022/03/05 10:57:22;;;;;;;;;;;;;;;20.05;32.92;100933.59;4968815;28;6986;-71
2022/03/05 11:00:07;;;;;;;;;;;;;;;20.33;32.02;100928.84;4973142;28;7205;-70
2022/03/05 11:02:34;;;;;;;;;;;;;;;20.70;31.89;100936.34;4990201;28;6915;-71
2022/03/05 11:05:01;;;;;;;;;;;;;;;21.02;30.43;100932.47;4994621;28;6977;-70
2022/03/05 11:07:27;;;;;;;;;;;;;;;21.19;29.83;100924.84;4976315;28;6980;-71
2022/03/05 11:09:54;;;;;;;;;;;;;;;21.34;29.30;100925.06;4956164;28;6992;-70
2022/03/05 11:12:21;;;;;;;;;;;;;;;21.50;29.47;100931.31;4974910;28;6967;-71
2022/03/05 11:14:50;;;;;;;;;;;;;;;21.75;29.36;100926.41;4971246;28;6808;-71
2022/03/05 11:17:16;;;;;;;;;;;;;;;22.06;28.77;100920.59;4970615;28;7244;-71
2022/03/05 11:19:43;;;;;;;;;;;;;;;22.29;28.97;100925.13;4970082;28;7048;-70
2022/03/05 11:22:11;;;;;;;;;;;;;;;22.53;28.57;100915.75;4934779;28;7007;-70
2022/03/05 11:24:40;;;;;;;;;;;;;;;22.82;28.13;100912.44;4984357;28;7294;-70
2022/03/05 11:27:11;;;;;;;;;;;;;;;22.90;27.27;100910.75;4973173;28;6899;-70
2022/03/05 11:29:57;;;;;;;;;;;;;;;22.82;27.69;100915.06;4980134;28;8317;-70
2022/03/05 11:32:30;;;;;;;;;;;;;;;22.83;27.24;100909.84;4970084;28;7042;-70
2022/03/05 11:34:55;;;;;;;;;;;;;;;23.07;27.23;100908.19;4972097;28;6894;-71
2022/03/05 11:37:35;;;;;;;;;;;;;;;23.37;27.22;100906.63;4950432;28;7141;-71
2022/03/05 11:40:07;;;;;;;;;;;;;;;23.46;25.96;100910.09;4968193;28;6906;-70
2022/03/05 11:42:36;;;;;;;;;;;;;;;23.45;26.04;100909.25;4965637;28;7081;-70
2022/03/05 11:45:30;;;;;;;;;;;;;;;23.54;26.47;100908.38;4990434;28;7247;-71
2022/03/05 11:48:27;;;;;;;;;;;;;;;23.41;26.18;100908.38;4973244;28;6991;-71
2022/03/05 11:51:01;;;;;;;;;;;;;;;23.44;25.61;100903.13;4986835;28;6816;-71
2022/03/05 11:53:27;;;;;;;;;;;;;;;23.43;25.86;100901.38;4988076;28;7116;-71
2022/03/05 11:55:54;;;;;;;;;;;;;;;23.35;25.96;100899.63;4989950;28;6853;-71
2022/03/05 11:58:32;;;;;;;;;;;;;;;23.49;25.97;100894.44;4988631;28;7427;-71
2022/03/05 12:00:58;;;;;;;;;;;;;;;23.80;25.71;100897.09;4987831;28;7229;-71
2022/03/05 12:03:37;;;;;;;;;;;;;;;24.13;24.78;100898.00;4968690;28;7070;-71
2022/03/05 12:06:04;;;;;;;;;;;;;;;24.38;24.53;100887.50;4969130;28;6998;-71
2022/03/05 12:08:30;;;;;;;;;;;;;;;24.41;23.87;100883.16;4968788;28;6951;-71
2022/03/05 12:11:18;;;;;;;;;;;;;;;24.36;23.69;100879.66;4988167;28;6787;-71
2022/03/05 12:13:54;;;;;;;;;;;;;;;24.13;23.71;100883.19;4972629;28;6824;-71
2022/03/05 12:16:24;;;;;;;;;;;;;;;23.98;23.83;100884.03;4992677;28;6908;-71
2022/03/05 12:18:54;;;;;;;;;;;;;;;23.90;24.12;100883.16;4985623;28;6816;-71
2022/03/05 12:21:33;;;;;;;;;;;;;;;23.81;23.65;100886.66;4969073;28;7342;-71
2022/03/05 12:24:10;;;;;;;;;;;;;;;23.55;23.92;100878.75;4970926;28;6804;-70
2022/03/05 12:26:50;;;;;;;;;;;;;;;23.41;24.05;100871.75;4972972;28;6874;-70
2022/03/05 12:29:16;;;;;;;;;;;;;;;23.29;23.87;100875.19;4954918;28;7737;-70
2022/03/05 12:31:44;;;;;;;;;;;;;;;23.12;23.42;100871.63;4967957;28;6852;-70
2022/03/05 12:34:11;;;;;;;;;;;;;;;22.87;23.59;100872.41;4988443;28;6804;-70
2022/03/05 12:36:44;;;;;;;;;;;;;;;22.10;23.54;100879.72;4973958;28;6808;-70
2022/03/05 12:39:10;;;;;;;;;;;;;;;20.88;24.38;100878.47;4965198;28;6867;-70
2022/03/05 12:41:36;;;;;;;;;;;;;;;19.74;25.27;100878.41;4969757;28;6876;-70
2022/03/05 12:44:04;;;;;;;;;;;;;;;18.81;25.92;100877.44;4985208;28;7207;-71
2022/03/05 12:46:30;;;;;;;;;;;;;;;18.08;25.97;100883.53;4984096;28;7849;-71
2022/03/05 12:49:05;;;;;;;;;;;;;;;17.45;26.68;100891.41;4968298;28;6862;-70
2022/03/05 12:51:31;;;;;;;;;;;;;;;16.94;27.48;100892.50;4967316;28;7496;-70
2022/03/05 12:54:02;;;;;;;;;;;;;;;16.51;27.39;100887.78;4965787;28;8233;-70
2022/03/05 12:56:28;;;;;;;;;;;;;;;16.15;27.87;100887.47;4990655;28;6895;-70
2022/03/05 12:58:59;;;;;;;;;;;;;;;15.80;28.09;100882.84;4984828;28;7024;-70
2022/03/05 13:01:27;;;;;;;;;;;;;;;15.48;28.09;100885.19;4983223;28;7227;-70
2022/03/05 13:03:58;;;;;;;;;;;;;;;15.23;28.44;100887.75;4955186;28;6804;-70